Time;durP1;ratioP1;P1;durP2;ratioP2;P2;SDS_P1;SDS_P2;PMS_P1;PMS_P2;Temp;Humidity;BMP_temperature;BMP_pressure;BME280_temperature;BME280_humidity;BME280_pressure;Samples;Min_cycle;Max_cycle;Signal;HPM_P1;HPM_P2
2023/04/26 00:02:11;;;;;;;5.77;4.00;;;;;;;4.90;100.00;98763.16;4979775;28;20248;-62
2023/04/26 00:04:38;;;;;;;6.20;3.43;;;;;;;4.74;100.00;98766.03;4971953;28;20238;-63
2023/04/26 00:07:05;;;;;;;9.30;3.57;;;;;;;4.63;100.00;98761.66;4974049;28;20240;-62
2023/04/26 00:09:32;;;;;;;7.37;3.60;;;;;;;4.53;100.00;98751.13;4973427;28;20232;-62
2023/04/26 00:11:58;;;;;;;7.60;3.33;;;;;;;4.45;100.00;98753.44;4970764;28;20241;-62
2023/04/26 00:14:26;;;;;;;9.33;3.43;;;;;;;4.40;100.00;98748.59;4965029;28;20669;-63
2023/04/26 00:16:53;;;;;;;5.67;3.53;;;;;;;4.30;100.00;98739.84;4987532;28;20230;-64
2023/04/26 00:19:20;;;;;;;8.67;4.23;;;;;;;4.24;100.00;98738.50;4993068;28;20749;-61
2023/04/26 00:21:46;;;;;;;4.63;3.60;;;;;;;4.26;100.00;98744.38;4984321;28;20224;-63
2023/04/26 00:24:13;;;;;;;6.03;3.60;;;;;;;4.30;100.00;98742.41;4978785;28;20228;-63
2023/04/26 00:26:40;;;;;;;8.50;3.83;;;;;;;4.28;100.00;98739.13;4989156;28;20220;-63
2023/04/26 00:29:06;;;;;;;4.93;3.83;;;;;;;4.18;100.00;98736.38;4964274;28;20672;-63
2023/04/26 00:31:34;;;;;;;10.03;4.23;;;;;;;4.09;100.00;98739.59;4980187;28;20294;-63
2023/04/26 00:34:01;;;;;;;4.73;3.90;;;;;;;4.03;100.00;98732.25;4972265;28;20217;-63
2023/04/26 00:36:27;;;;;;;7.77;3.47;;;;;;;3.90;100.00;98738.28;4971825;28;20240;-63
2023/04/26 00:38:54;;;;;;;7.27;4.00;;;;;;;3.85;100.00;98732.59;4984705;28;20227;-63
2023/04/26 00:41:20;;;;;;;7.03;3.60;;;;;;;3.75;100.00;98732.38;4984554;28;20314;-63
2023/04/26 00:43:47;;;;;;;8.80;3.57;;;;;;;3.73;100.00;98733.44;4973180;28;20226;-63
2023/04/26 00:46:14;;;;;;;6.63;3.60;;;;;;;3.74;100.00;98732.50;4957386;28;20250;-63
2023/04/26 00:48:42;;;;;;;6.17;3.80;;;;;;;3.71;100.00;98732.72;4973636;28;20257;-63
2023/04/26 00:51:09;;;;;;;10.47;3.77;;;;;;;3.66;100.00;98736.44;4954191;28;20286;-63
2023/04/26 00:53:36;;;;;;;7.67;3.80;;;;;;;3.64;100.00;98742.63;4984420;28;20232;-63
2023/04/26 00:56:03;;;;;;;9.93;3.93;;;;;;;3.58;100.00;98745.63;4987516;28;20221;-63
2023/04/26 00:58:30;;;;;;;10.63;3.60;;;;;;;3.58;100.00;98751.59;4975696;28;20226;-63
2023/04/26 01:00:57;;;;;;;9.90;3.67;;;;;;;3.52;100.00;98754.59;4967908;28;20299;-63
2023/04/26 01:03:24;;;;;;;7.87;4.10;;;;;;;3.52;100.00;98750.28;4956475;28;20759;-63
2023/04/26 01:05:52;;;;;;;11.73;4.20;;;;;;;3.46;100.00;98758.44;4973442;28;20750;-63
2023/04/26 01:08:19;;;;;;;7.50;4.10;;;;;;;3.39;100.00;98757.19;4965748;28;20222;-63
2023/04/26 01:10:47;;;;;;;8.80;3.73;;;;;;;3.34;100.00;98756.66;4954124;28;20300;-63
2023/04/26 01:13:13;;;;;;;11.53;4.17;;;;;;;3.28;100.00;98750.13;4991855;28;20232;-63
2023/04/26 01:15:44;;;;;;;9.83;3.90;;;;;;;3.36;100.00;98757.38;4990522;28;20217;-63
2023/04/26 01:18:11;;;;;;;8.00;4.47;;;;;;;3.35;100.00;98758.31;4976357;28;20240;-63
2023/04/26 01:20:37;;;;;;;10.13;4.00;;;;;;;3.28;100.00;98757.88;4978802;28;20232;-62
2023/04/26 01:23:06;;;;;;;8.07;4.10;;;;;;;3.21;100.00;98754.03;4952650;28;20280;-62
2023/04/26 01:25:33;;;;;;;11.53;3.50;;;;;;;3.19;100.00;98750.75;4972260;28;20232;-62
2023/04/26 01:28:01;;;;;;;9.93;4.40;;;;;;;3.09;100.00;98753.94;4961644;28;20232;-62
2023/04/26 01:30:27;;;;;;;7.57;3.50;;;;;;;3.07;100.00;98750.63;4978898;28;20227;-62
2023/04/26 01:32:54;;;;;;;6.77;3.77;;;;;;;3.07;100.00;98753.22;4974823;28;20285;-62
2023/04/26 01:35:21;;;;;;;6.97;3.70;;;;;;;3.06;100.00;98750.72;4982129;28;20759;-62
2023/04/26 01:37:47;;;;;;;10.47;3.83;;;;;;;3.09;100.00;98747.94;4979886;28;20220;-62
2023/04/26 01:40:15;;;;;;;9.03;3.43;;;;;;;3.12;100.00;98742.59;4981109;28;20229;-62
2023/04/26 01:42:42;;;;;;;9.30;3.87;;;;;;;3.13;100.00;98751.16;4985777;28;20233;-62
2023/04/26 01:45:09;;;;;;;7.97;3.60;;;;;;;3.13;100.00;98757.13;4978893;28;20233;-62
2023/04/26 01:47:55;;;;;;;8.67;3.27;;;;;;;3.12;100.00;98752.91;4979755;28;20242;-62
2023/04/26 01:50:21;;;;;;;5.73;3.60;;;;;;;3.12;100.00;98752.09;4973109;28;20234;-62
2023/04/26 01:52:48;;;;;;;9.60;3.57;;;;;;;3.17;100.00;98758.59;4968017;28;20319;-63
2023/04/26 01:55:16;;;;;;;8.97;4.03;;;;;;;3.15;100.00;98757.06;4993808;28;20608;-63
2023/04/26 01:57:42;;;;;;;5.97;3.67;;;;;;;3.14;100.00;98761.38;4987576;28;20606;-63
2023/04/26 02:00:10;;;;;;;10.60;4.67;;;;;;;3.17;100.00;98755.19;4971956;28;20242;-63
2023/04/26 02:02:42;;;;;;;6.27;3.60;;;;;;;3.15;100.00;98760.44;4958582;28;20237;-63
2023/04/26 02:05:11;;;;;;;8.23;4.73;;;;;;;3.14;100.00;98763.13;4961060;28;20442;-63
2023/04/26 02:07:38;;;;;;;10.80;4.23;;;;;;;3.15;100.00;98757.06;4975175;28;20328;-63
2023/04/26 02:10:06;;;;;;;7.03;4.10;;;;;;;3.16;100.00;98756.13;4990822;28;20247;-63
2023/04/26 02:12:34;;;;;;;9.97;4.40;;;;;;;3.12;100.00;98758.06;4992217;28;20228;-63
2023/04/26 02:15:00;;;;;;;7.17;4.37;;;;;;;3.10;100.00;98762.50;4989562;28;20747;-63
2023/04/26 02:17:28;;;;;;;12.40;3.53;;;;;;;3.04;100.00;98768.91;4992981;28;20303;-63
2023/04/26 02:19:55;;;;;;;5.40;3.50;;;;;;;2.97;100.00;98767.63;4959781;28;20330;-63
2023/04/26 02:22:23;;;;;;;7.70;4.03;;;;;;;2.87;100.00;98766.56;4975717;28;20221;-63
2023/04/26 02:24:53;;;;;;;8.87;4.07;;;;;;;2.88;100.00;98769.03;4976024;28;20229;-63
2023/04/26 02:27:19;;;;;;;6.93;3.27;;;;;;;2.81;100.00;98765.19;4989002;28;20233;-62
2023/04/26 02:30:13;;;;;;;9.00;3.90;;;;;;;2.76;100.00;98764.66;4980272;28;20236;-62
2023/04/26 02:32:40;;;;;;;9.60;4.03;;;;;;;2.65;100.00;98766.16;4960813;28;20291;-62
2023/04/26 02:35:08;;;;;;;8.63;3.80;;;;;;;2.61;100.00;98766.47;4985730;28;20255;-62
2023/04/26 02:37:36;;;;;;;9.27;3.63;;;;;;;2.52;100.00;98762.72;4989189;28;20233;-62
2023/04/26 02:40:04;;;;;;;8.27;3.77;;;;;;;2.54;100.00;98772.94;4972711;28;20423;-62
2023/04/26 02:42:30;;;;;;;7.93;3.80;;;;;;;2.52;100.00;98778.19;4977011;28;20250;-62
2023/04/26 02:44:57;;;;;;;8.73;3.50;;;;;;;2.46;100.00;98776.00;4966132;28;20237;-62
2023/04/26 02:47:25;;;;;;;8.77;3.83;;;;;;;2.45;100.00;98775.16;4957441;28;20233;-62
2023/04/26 02:49:53;;;;;;;8.63;3.77;;;;;;;2.46;100.00;98768.25;4975090;28;20312;-62
2023/04/26 02:52:20;;;;;;;11.20;4.03;;;;;;;2.43;100.00;98768.47;4956755;28;20601;-62
2023/04/26 02:55:11;;;;;;;7.53;3.60;;;;;;;2.41;100.00;98765.97;4991284;28;20236;-63
2023/04/26 02:57:38;;;;;;;8.47;3.63;;;;;;;2.32;100.00;98766.53;4974296;28;20542;-63
2023/04/26 03:00:08;;;;;;;9.57;3.70;;;;;;;2.32;100.00;98759.63;4984626;28;20245;-63
2023/04/26 03:02:36;;;;;;;12.13;4.20;;;;;;;2.38;100.00;98755.03;4986546;28;20588;-63
2023/04/26 03:05:03;;;;;;;9.23;5.33;;;;;;;2.45;100.00;98756.31;4989795;28;20527;-63
2023/04/26 03:07:31;;;;;;;8.53;4.37;;;;;;;2.46;100.00;98763.13;4994028;28;20220;-63
2023/04/26 03:09:59;;;;;;;11.83;4.10;;;;;;;2.53;100.00;98758.38;4985418;28;20228;-63
2023/04/26 03:12:26;;;;;;;5.73;4.07;;;;;;;2.54;100.00;98754.88;4993799;28;20263;-63
2023/04/26 03:14:53;;;;;;;10.20;4.13;;;;;;;2.60;100.00;98754.50;4990268;28;20230;-63
2023/04/26 03:17:20;;;;;;;8.63;4.60;;;;;;;2.61;100.00;98757.00;4972416;28;20230;-62
2023/04/26 03:19:55;;;;;;;9.70;4.17;;;;;;;2.71;100.00;98759.81;4987121;28;20221;-62
2023/04/26 03:22:21;;;;;;;9.70;5.30;;;;;;;2.76;100.00;98751.78;4963281;28;20292;-62
2023/04/26 03:24:53;;;;;;;9.50;4.67;;;;;;;2.78;100.00;98753.34;4989514;28;20463;-62
2023/04/26 03:27:20;;;;;;;8.30;4.83;;;;;;;2.86;100.00;98749.44;4979602;28;20229;-62
2023/04/26 03:32:53;;;;;;;8.93;4.53;;;;;;;2.77;100.00;98746.53;5112080;22;20219;-63
2023/04/26 03:35:21;;;;;;;12.80;5.77;;;;;;;2.75;100.00;98755.28;5026635;28;20224;-63
2023/04/26 03:37:48;;;;;;;10.53;4.80;;;;;;;2.65;100.00;98747.31;5015703;28;20227;-63
2023/04/26 03:40:16;;;;;;;8.97;5.70;;;;;;;2.57;100.00;98752.97;5023508;28;20222;-63
2023/04/26 03:42:44;;;;;;;9.47;6.60;;;;;;;2.49;100.00;98747.47;5020388;28;20574;-63
2023/04/26 03:45:11;;;;;;;13.33;5.67;;;;;;;2.43;100.00;98743.50;5014018;28;20222;-62
2023/04/26 03:47:38;;;;;;;9.97;5.77;;;;;;;2.47;100.00;98744.16;5019449;28;20233;-62
2023/04/26 03:50:05;;;;;;;11.33;5.27;;;;;;;2.47;100.00;98746.72;5014219;28;20235;-62
2023/04/26 03:52:33;;;;;;;10.50;5.73;;;;;;;2.41;100.00;98742.78;5025556;28;20219;-62
2023/04/26 03:55:00;;;;;;;12.80;6.20;;;;;;;2.32;100.00;98735.63;5031306;28;20219;-62
2023/04/26 03:57:27;;;;;;;12.70;6.00;;;;;;;2.21;100.00;98734.53;5016648;28;20242;-63
2023/04/26 03:59:54;;;;;;;10.03;5.93;;;;;;;2.22;100.00;98730.22;5017059;28;20642;-63
2023/04/26 04:02:22;;;;;;;13.57;5.37;;;;;;;2.20;100.00;98737.22;5026150;28;20238;-63
2023/04/26 04:04:53;;;;;;;13.10;5.00;;;;;;;2.13;100.00;98728.22;5015770;28;20231;-63
2023/04/26 04:07:20;;;;;;;13.97;5.07;;;;;;;2.10;100.00;98726.66;5021069;28;20226;-63
2023/04/26 04:10:12;;;;;;;15.33;5.57;;;;;;;2.09;100.00;98730.16;5031989;28;20230;-63
2023/04/26 04:12:41;;;;;;;6.90;4.80;;;;;;;2.09;100.00;98727.59;5009964;28;20230;-63
2023/04/26 04:15:09;;;;;;;13.73;5.83;;;;;;;2.04;100.00;98729.63;5030212;28;20251;-63
2023/04/26 04:17:41;;;;;;;13.80;6.43;;;;;;;2.04;100.00;98732.19;5017645;28;20239;-63
2023/04/26 04:20:09;;;;;;;13.67;5.23;;;;;;;2.09;100.00;98725.00;5013381;28;20725;-63
2023/04/26 04:22:37;;;;;;;12.07;5.10;;;;;;;2.06;100.00;98728.59;5024077;28;20236;-63
2023/04/26 04:25:04;;;;;;;13.67;5.00;;;;;;;2.08;100.00;98730.25;5028724;28;20228;-63
2023/04/26 04:27:33;;;;;;;9.67;5.43;;;;;;;2.09;100.00;98724.16;5018051;28;20250;-63
2023/04/26 04:30:02;;;;;;;12.33;5.20;;;;;;;2.15;100.00;98732.34;5021472;28;20232;-63
2023/04/26 04:32:31;;;;;;;10.17;5.03;;;;;;;2.13;100.00;98730.78;5030415;28;20315;-63
2023/04/26 04:34:58;;;;;;;10.55;6.40;;;;;;;2.16;100.00;98728.03;5010522;28;20443;-63
2023/04/26 04:37:25;;;;;;;11.57;5.67;;;;;;;2.18;100.00;98736.47;5020032;28;20227;-63
2023/04/26 04:39:53;;;;;;;11.67;5.60;;;;;;;2.28;100.00;98741.88;5027981;28;20237;-63
2023/04/26 04:42:20;;;;;;;13.03;5.67;;;;;;;2.21;100.00;98742.25;5018664;28;20237;-63
2023/04/26 04:45:13;;;;;;;9.57;5.50;;;;;;;2.20;100.00;98742.38;5030461;28;20220;-63
2023/04/26 04:47:40;;;;;;;11.50;6.07;;;;;;;2.20;100.00;98748.31;5018062;28;20310;-62
2023/04/26 04:50:08;;;;;;;8.87;5.27;;;;;;;2.22;100.00;98743.09;5014550;28;20255;-62
2023/04/26 04:52:35;;;;;;;9.30;4.97;;;;;;;2.30;100.00;98745.19;5018359;28;20584;-62
2023/04/26 04:55:02;;;;;;;8.30;5.20;;;;;;;2.33;100.00;98748.41;5012777;28;20235;-62
2023/04/26 04:57:29;;;;;;;9.13;5.00;;;;;;;2.48;100.00;98756.13;5034168;28;20287;-62
2023/04/26 04:59:56;;;;;;;10.50;5.27;;;;;;;2.51;100.00;98756.72;5030060;28;20327;-63
2023/04/26 05:02:24;;;;;;;11.03;5.23;;;;;;;2.58;100.00;98756.34;5024162;28;20258;-63
2023/04/26 05:04:54;;;;;;;11.20;6.63;;;;;;;2.63;100.00;98762.88;5013995;28;20921;-63
2023/04/26 05:07:21;;;;;;;16.20;9.63;;;;;;;2.72;100.00;98755.47;5023590;28;20328;-63
2023/04/26 05:09:53;;;;;;;11.63;6.87;;;;;;;2.79;100.00;98754.16;5015918;28;20237;-63
2023/04/26 05:12:20;;;;;;;9.93;5.60;;;;;;;2.90;100.00;98753.47;5023434;28;20228;-63
2023/04/26 05:14:54;;;;;;;11.17;5.20;;;;;;;2.99;100.00;98758.03;5011242;28;20706;-63
2023/04/26 05:17:21;;;;;;;11.93;5.30;;;;;;;3.09;100.00;98764.25;5016084;28;20226;-63
2023/04/26 05:19:55;;;;;;;9.20;5.97;;;;;;;3.18;100.00;98767.16;5015846;28;20579;-63
2023/04/26 05:22:21;;;;;;;9.17;5.70;;;;;;;3.22;100.00;98772.00;5033437;28;20930;-62
2023/04/26 05:24:53;;;;;;;8.80;5.37;;;;;;;3.25;100.00;98773.56;5011559;28;20239;-62
2023/04/26 05:27:20;;;;;;;8.77;5.50;;;;;;;3.31;100.00;98774.91;5033070;28;20701;-63
2023/04/26 05:30:12;;;;;;;8.87;5.30;;;;;;;3.33;100.00;98767.91;5030073;28;20238;-62
2023/04/26 05:33:11;;;;;;;12.47;5.17;;;;;;;3.34;100.00;98770.38;4985097;28;20253;-62
2023/04/26 05:35:51;;;;;;;11.97;8.33;;;;;;;3.39;100.00;98775.25;5014582;28;20234;-61
2023/04/26 05:38:18;;;;;;;8.20;5.30;;;;;;;3.37;100.00;98770.16;5019795;28;20243;-63
2023/04/26 05:40:47;;;;;;;9.33;5.17;;;;;;;3.40;100.00;98775.13;5023338;28;20231;-63
2023/04/26 05:43:13;;;;;;;10.33;4.70;;;;;;;3.41;100.00;98773.38;5021856;28;20230;-63
2023/04/26 05:45:49;;;;;;;12.57;5.17;;;;;;;3.44;100.00;98770.59;5020308;28;20231;-63
2023/04/26 05:48:16;;;;;;;8.27;4.47;;;;;;;3.47;100.00;98772.16;5016199;28;20599;-63
2023/04/26 05:50:42;;;;;;;11.77;5.20;;;;;;;3.52;100.00;98780.41;5020827;28;20235;-63
2023/04/26 05:53:11;;;;;;;8.90;4.97;;;;;;;3.53;100.00;98782.06;5017364;28;20309;-63
2023/04/26 05:55:37;;;;;;;12.70;4.87;;;;;;;3.57;100.00;98785.28;5018927;28;20230;-63
2023/04/26 05:58:04;;;;;;;12.17;5.67;;;;;;;3.59;100.00;98789.41;5029888;28;20235;-63
2023/04/26 06:00:31;;;;;;;8.00;4.90;;;;;;;3.65;100.00;98789.00;5018304;28;20219;-63
2023/04/26 06:02:59;;;;;;;9.68;6.20;;;;;;;3.79;100.00;98795.00;5012570;28;20415;-62
2023/04/26 06:05:25;;;;;;;12.97;5.03;;;;;;;3.87;100.00;98802.19;5033328;28;20223;-62
2023/04/26 06:07:53;;;;;;;12.60;5.47;;;;;;;4.04;100.00;98804.47;5016890;28;20651;-61
2023/04/26 06:10:21;;;;;;;10.90;5.57;;;;;;;4.24;100.00;98807.44;5017992;28;20736;-62
2023/04/26 06:12:48;;;;;;;9.97;4.70;;;;;;;4.47;100.00;98812.78;5015864;28;20231;-62
2023/04/26 06:15:16;;;;;;;10.40;5.20;;;;;;;4.65;100.00;98808.91;5018440;28;20704;-61
2023/04/26 06:17:43;;;;;;;16.87;5.17;;;;;;;4.85;100.00;98806.63;5032360;28;20227;-62
2023/04/26 06:20:11;;;;;;;10.77;5.50;;;;;;;4.95;100.00;98805.06;5014925;28;20235;-62
2023/04/26 06:22:37;;;;;;;20.53;6.80;;;;;;;5.21;100.00;98804.13;5032664;28;20232;-62
2023/04/26 06:25:05;;;;;;;13.10;6.53;;;;;;;5.36;100.00;98802.97;5013028;28;20228;-61
2023/04/26 06:27:37;;;;;;;13.57;8.53;;;;;;;5.50;100.00;98808.88;5021228;28;20215;-63
2023/04/26 06:30:06;;;;;;;14.97;8.27;;;;;;;5.63;100.00;98814.81;5012672;28;20236;-63
2023/04/26 06:32:34;;;;;;;14.53;7.80;;;;;;;5.69;100.00;98813.53;5027074;28;20280;-63
2023/04/26 06:35:01;;;;;;;11.60;6.60;;;;;;;5.59;100.00;98813.38;5014377;28;20219;-63
2023/04/26 06:37:27;;;;;;;10.47;6.90;;;;;;;5.68;100.00;98811.88;5015990;28;20222;-63
2023/04/26 06:39:54;;;;;;;14.23;7.43;;;;;;;5.79;100.00;98813.66;5033029;28;20220;-63
2023/04/26 06:42:21;;;;;;;11.13;7.80;;;;;;;5.89;100.00;98815.44;5026656;28;20238;-63
2023/04/26 06:45:14;;;;;;;12.27;7.23;;;;;;;5.97;100.00;98820.06;5015895;28;20231;-63
2023/04/26 06:47:40;;;;;;;14.80;7.57;;;;;;;6.07;100.00;98820.19;5020042;28;20302;-63
2023/04/26 06:50:08;;;;;;;13.83;7.10;;;;;;;6.10;100.00;98808.78;5014909;28;20759;-63
2023/04/26 06:52:35;;;;;;;11.37;6.80;;;;;;;6.06;100.00;98805.59;5030816;28;20277;-63
2023/04/26 06:55:02;;;;;;;14.47;6.87;;;;;;;6.12;100.00;98810.28;5032445;28;20723;-63
2023/04/26 06:57:29;;;;;;;16.27;7.37;;;;;;;6.21;100.00;98798.41;5035784;28;20692;-63
2023/04/26 06:59:55;;;;;;;10.93;6.83;;;;;;;6.25;100.00;98794.66;5026876;28;20254;-63
2023/04/26 07:02:23;;;;;;;10.77;6.50;;;;;;;6.18;100.00;98793.47;5035493;28;20322;-63
2023/04/26 07:04:53;;;;;;;11.83;6.70;;;;;;;6.25;100.00;98794.66;5032811;28;20219;-63
2023/04/26 07:07:20;;;;;;;12.80;6.70;;;;;;;6.22;100.00;98787.09;5035076;28;20564;-63
2023/04/26 07:10:13;;;;;;;11.93;6.43;;;;;;;6.25;100.00;98784.28;5031268;28;20390;-58
2023/04/26 07:12:39;;;;;;;11.10;6.33;;;;;;;6.27;100.00;98781.56;5035206;28;20228;-63
2023/04/26 07:15:08;;;;;;;10.27;6.73;;;;;;;6.40;100.00;98784.00;5030248;28;20243;-63
2023/04/26 07:17:36;;;;;;;9.87;6.17;;;;;;;6.64;100.00;98786.44;5032429;28;20232;-63
2023/04/26 07:20:03;;;;;;;11.67;6.40;;;;;;;6.87;100.00;98787.19;5029432;28;20235;-63
2023/04/26 07:22:29;;;;;;;11.47;7.23;;;;;;;7.11;100.00;98788.75;5033986;28;20235;-63
2023/04/26 07:24:56;;;;;;;13.40;7.07;;;;;;;7.36;100.00;98787.56;5032937;28;20227;-63
2023/04/26 07:27:23;;;;;;;11.03;6.37;;;;;;;7.44;100.00;98789.53;5035640;28;20220;-63
2023/04/26 07:29:54;;;;;;;10.93;7.27;;;;;;;7.59;100.00;98784.84;5026392;28;20251;-63
2023/04/26 07:32:21;;;;;;;10.60;6.80;;;;;;;7.71;100.00;98798.59;5029268;28;20332;-63
2023/04/26 07:34:54;;;;;;;10.67;6.07;;;;;;;7.60;97.71;98789.09;5032140;28;20227;-63
2023/04/26 07:37:21;;;;;;;13.73;6.30;;;;;;;7.48;98.41;98800.50;5033332;28;20233;-63
2023/04/26 07:39:53;;;;;;;10.00;5.90;;;;;;;7.48;100.00;98798.72;5031793;28;20232;-63
2023/04/26 07:42:19;;;;;;;11.57;6.50;;;;;;;7.51;100.00;98798.47;5032879;28;20292;-63
2023/04/26 07:44:50;;;;;;;9.93;6.87;;;;;;;7.57;100.00;98802.34;5030705;28;20286;-62
2023/04/26 07:47:17;;;;;;;12.47;6.70;;;;;;;7.38;100.00;98797.84;5033146;28;20706;-62
2023/04/26 07:49:43;;;;;;;10.40;6.20;;;;;;;7.43;100.00;98792.25;5034418;28;20232;-62
2023/04/26 07:52:11;;;;;;;12.57;6.37;;;;;;;7.45;100.00;98796.38;5031357;28;20244;-62
2023/04/26 07:54:39;;;;;;;11.23;6.43;;;;;;;7.68;100.00;98798.84;5028721;28;20247;-62
2023/04/26 07:57:05;;;;;;;13.43;7.30;;;;;;;7.59;100.00;98800.44;5032787;28;20230;-62
2023/04/26 07:59:32;;;;;;;10.47;7.10;;;;;;;7.54;100.00;98798.22;5033728;28;20242;-62
2023/04/26 08:01:59;;;;;;;14.77;7.40;;;;;;;7.56;100.00;98805.88;5033145;28;20231;-62
2023/04/26 08:04:32;;;;;;;15.53;7.00;;;;;;;7.47;100.00;98802.25;5037053;28;20270;-62
2023/04/26 08:07:00;;;;;;;13.70;7.73;;;;;;;7.33;100.00;98798.22;5030653;28;20256;-62
2023/04/26 08:09:29;;;;;;;11.13;6.93;;;;;;;7.54;100.00;98800.81;5032184;28;20232;-62
2023/04/26 08:11:56;;;;;;;11.10;6.80;;;;;;;7.63;100.00;98807.03;5031927;28;20240;-62
2023/04/26 08:14:23;;;;;;;14.73;7.23;;;;;;;7.82;100.00;98808.09;5034225;28;20224;-62
2023/04/26 08:16:50;;;;;;;15.17;8.10;;;;;;;7.99;100.00;98809.25;5028567;28;20300;-62
2023/04/26 08:19:16;;;;;;;12.27;6.40;;;;;;;8.05;100.00;98806.16;5015314;28;20227;-62
2023/04/26 08:21:43;;;;;;;13.53;7.10;;;;;;;7.98;100.00;98811.03;5035273;28;20743;-63
2023/04/26 08:24:09;;;;;;;12.97;6.93;;;;;;;7.98;100.00;98815.41;5026069;28;20232;-62
2023/04/26 08:26:37;;;;;;;11.43;7.57;;;;;;;7.98;100.00;98816.22;5035654;28;20774;-62
2023/04/26 08:29:04;;;;;;;10.93;7.03;;;;;;;8.11;100.00;98815.19;5030062;28;20391;-60
2023/04/26 08:31:30;;;;;;;9.43;6.27;;;;;;;8.23;100.00;98826.34;5032560;28;20291;-60
2023/04/26 08:33:57;;;;;;;14.27;7.87;;;;;;;8.28;100.00;98813.78;5030256;28;20759;-64
2023/04/26 08:36:24;;;;;;;14.83;8.27;;;;;;;8.47;100.00;98812.19;5033139;28;20218;-64
2023/04/26 08:38:50;;;;;;;13.17;7.13;;;;;;;8.69;100.00;98814.59;5026603;28;20232;-64
2023/04/26 08:41:22;;;;;;;10.90;6.83;;;;;;;8.96;100.00;98809.72;5033179;28;20229;-64
2023/04/26 08:43:51;;;;;;;10.93;6.17;;;;;;;9.16;97.85;98816.53;5029195;28;20247;-64
2023/04/26 08:46:20;;;;;;;10.80;6.93;;;;;;;9.50;96.50;98817.91;5035152;28;20211;-60
2023/04/26 08:48:54;;;;;;;12.37;6.53;;;;;;;9.75;91.43;98816.50;5033345;28;20733;-61
2023/04/26 08:51:22;;;;;;;11.13;6.47;;;;;;;10.02;91.89;98807.09;5029924;28;20239;-59
2023/04/26 08:53:51;;;;;;;13.67;7.00;;;;;;;10.31;92.58;98807.94;5028271;28;20279;-64
2023/04/26 08:56:18;;;;;;;11.67;6.10;;;;;;;10.48;88.49;98808.97;5035164;28;20252;-63
2023/04/26 08:58:45;;;;;;;13.13;6.07;;;;;;;10.61;88.70;98809.44;5032405;28;20276;-63
2023/04/26 09:01:15;;;;;;;9.33;4.93;;;;;;;10.95;89.40;98807.19;5028745;28;20237;-63
2023/04/26 09:03:41;;;;;;;10.73;5.27;;;;;;;11.31;86.53;98804.53;5031991;28;20230;-63
2023/04/26 09:06:08;;;;;;;9.17;5.27;;;;;;;11.81;82.96;98803.91;5027920;28;20243;-62
2023/04/26 09:08:38;;;;;;;9.20;4.57;;;;;;;12.10;72.81;98801.97;5032653;28;20809;-63
2023/04/26 09:11:05;;;;;;;9.73;4.83;;;;;;;12.40;68.73;98805.84;5029655;28;20235;-63
2023/04/26 09:13:32;;;;;;;10.13;4.30;;;;;;;12.68;69.18;98799.56;5032707;28;20249;-63
2023/04/26 09:15:58;;;;;;;8.90;4.93;;;;;;;12.08;67.16;98801.28;5030808;28;20223;-63
2023/04/26 09:18:26;;;;;;;6.33;3.80;;;;;;;12.15;63.80;98798.91;5030240;28;20270;-63
2023/04/26 09:21:04;;;;;;;10.50;4.50;;;;;;;12.09;62.98;98803.78;5027049;28;20219;-63
2023/04/26 09:23:32;;;;;;;7.50;3.70;;;;;;;12.55;64.13;98800.00;5030485;28;20231;-63
2023/04/26 09:26:17;;;;;;;9.13;4.10;;;;;;;12.34;61.82;98803.06;5027001;28;20310;-63
2023/04/26 09:28:45;;;;;;;8.17;4.17;;;;;;;12.11;63.15;98803.59;5029818;28;20229;-63
2023/04/26 09:31:11;;;;;;;10.80;4.60;;;;;;;11.31;68.63;98805.38;5030117;28;20633;-63
2023/04/26 09:33:57;;;;;;;10.77;4.60;;;;;;;11.16;68.16;98793.81;5029911;28;20246;-63
2023/04/26 09:36:24;;;;;;;6.20;4.27;;;;;;;11.46;67.01;98810.06;5026844;28;20229;-63
2023/04/26 09:38:50;;;;;;;10.63;4.57;;;;;;;11.43;66.88;98794.69;5027872;28;20279;-62
2023/04/26 09:41:17;;;;;;;9.63;4.80;;;;;;;11.43;65.73;98789.44;5034321;28;20631;-62
2023/04/26 09:43:43;;;;;;;8.93;3.57;;;;;;;11.33;65.14;98792.13;5035728;28;20573;-62
2023/04/26 09:46:10;;;;;;;8.33;3.67;;;;;;;11.01;67.26;98791.72;5027924;28;20600;-62
2023/04/26 09:48:36;;;;;;;9.20;3.90;;;;;;;10.77;68.50;98785.28;5026804;28;20640;-62
2023/04/26 09:51:11;;;;;;;5.83;3.70;;;;;;;10.78;67.13;98794.75;5029631;28;20640;-62
2023/04/26 09:53:39;;;;;;;13.87;4.50;;;;;;;10.71;69.14;98800.72;5033653;28;20891;-62
2023/04/26 09:56:10;;;;;;;8.23;3.70;;;;;;;10.65;69.29;98789.06;5030313;28;20251;-62
2023/04/26 09:58:37;;;;;;;6.87;3.60;;;;;;;10.52;71.06;98792.03;5035162;28;20232;-62
2023/04/26 10:01:05;;;;;;;9.30;3.90;;;;;;;10.67;72.83;98789.75;5030685;28;20249;-62
2023/04/26 10:03:33;;;;;;;8.00;3.27;;;;;;;10.79;67.21;98787.75;5032457;28;20726;-63
2023/04/26 10:06:00;;;;;;;7.73;3.27;;;;;;;10.83;67.69;98794.34;5027073;28;20748;-63
2023/04/26 10:08:29;;;;;;;7.27;3.47;;;;;;;10.83;66.88;98788.28;5033372;28;20230;-63
2023/04/26 10:10:56;;;;;;;7.17;3.00;;;;;;;10.88;66.18;98786.03;5024720;28;20225;-63
2023/04/26 10:13:22;;;;;;;8.37;3.90;;;;;;;11.00;69.23;98784.84;5027376;28;20234;-63
2023/04/26 10:15:50;;;;;;;6.93;3.27;;;;;;;11.12;68.42;98792.47;5031851;28;20325;-63
2023/04/26 10:18:16;;;;;;;8.37;3.43;;;;;;;11.15;65.46;98790.34;5032257;28;20222;-63
2023/04/26 10:20:46;;;;;;;11.40;4.70;;;;;;;11.56;60.86;98792.50;5028420;28;20246;-63
2023/04/26 10:23:19;;;;;;;5.03;2.77;;;;;;;11.87;58.96;98791.19;5033637;28;20662;-64
2023/04/26 10:25:48;;;;;;;9.00;3.03;;;;;;;11.59;58.63;98780.88;5037292;28;20230;-63
2023/04/26 10:28:16;;;;;;;10.40;2.90;;;;;;;12.50;56.80;98787.41;5020471;28;20703;-63
2023/04/26 10:30:56;;;;;;;5.80;2.67;;;;;;;12.95;55.00;98781.91;5020947;28;20312;-63
2023/04/26 10:33:23;;;;;;;6.37;2.87;;;;;;;13.27;56.45;98780.28;5032484;28;20880;-63
2023/04/26 10:36:04;;;;;;;5.27;2.70;;;;;;;13.88;57.27;98785.97;5034953;28;20215;-63
2023/04/26 10:38:30;;;;;;;9.93;2.93;;;;;;;14.19;50.39;98792.25;5031027;28;20594;-63
2023/04/26 10:41:30;;;;;;;6.03;2.60;;;;;;;13.96;52.06;98792.19;5034846;28;20228;-63
2023/04/26 10:43:58;;;;;;;7.77;2.90;;;;;;;13.68;53.54;98798.66;5031911;28;20314;-64
2023/04/26 10:46:39;;;;;;;4.37;1.80;;;;;;;13.90;56.53;98783.16;5036094;28;20294;-64
2023/04/26 10:49:16;;;;;;;4.93;2.97;;;;;;;13.88;57.76;98775.47;5034854;28;20761;-63
2023/04/26 10:52:12;;;;;;;4.40;2.43;;;;;;;14.08;55.46;98776.88;5036378;28;20221;-63
2023/04/26 10:54:46;;;;;;;4.17;2.57;;;;;;;14.01;59.90;98779.38;5031402;28;20300;-63
2023/04/26 10:57:14;;;;;;;7.13;3.30;;;;;;;14.44;62.13;98779.81;5032413;28;20569;-63
2023/04/26 11:00:19;;;;;;;8.27;2.53;;;;;;;14.17;53.57;98773.22;5033257;28;20232;-63
2023/04/26 11:02:57;;;;;;;6.33;2.60;;;;;;;14.20;49.72;98757.13;5031953;28;20243;-63
2023/04/26 11:05:38;;;;;;;5.10;2.17;;;;;;;14.58;51.88;98754.66;5027286;28;20229;-63
2023/04/26 11:08:15;;;;;;;4.20;2.50;;;;;;;14.60;46.89;98751.84;5018722;28;20233;-64
2023/04/26 11:10:41;;;;;;;5.53;2.37;;;;;;;14.60;47.81;98741.31;5026041;28;20223;-64
2023/04/26 11:13:09;;;;;;;6.10;2.20;;;;;;;15.00;46.32;98751.75;5017941;28;20381;-63
2023/04/26 11:15:36;;;;;;;4.80;2.33;;;;;;;14.47;48.67;98747.16;5035203;28;20697;-62
2023/04/26 11:18:04;;;;;;;7.07;2.47;;;;;;;14.91;47.26;98745.75;5027013;28;20330;-62
2023/04/26 11:20:31;;;;;;;6.03;2.50;;;;;;;14.22;49.71;98746.47;5033967;28;20697;-63
2023/04/26 11:22:58;;;;;;;5.60;2.40;;;;;;;14.28;46.04;98735.28;5031571;28;20294;-63
2023/04/26 11:25:26;;;;;;;6.37;2.60;;;;;;;14.16;49.33;98734.84;5030854;28;20235;-63
2023/04/26 11:27:57;;;;;;;5.53;2.13;;;;;;;14.30;49.24;98723.63;5031518;28;20284;-63
2023/04/26 11:30:25;;;;;;;6.33;2.20;;;;;;;14.57;52.01;98732.00;5032528;28;20328;-63
2023/04/26 11:32:52;;;;;;;6.47;2.40;;;;;;;14.76;48.76;98722.88;5032059;28;20615;-63
2023/04/26 11:35:21;;;;;;;3.87;2.60;;;;;;;14.14;47.27;98713.19;5039181;28;20281;-63
2023/04/26 11:37:50;;;;;;;6.43;2.20;;;;;;;14.32;50.01;98712.91;5032192;28;20218;-64
2023/04/26 11:40:17;;;;;;;4.40;2.10;;;;;;;14.79;49.80;98715.63;5037086;28;20236;-62
2023/04/26 11:42:44;;;;;;;4.10;1.90;;;;;;;15.17;49.74;98713.00;5031528;28;20234;-62